createdAt,value
2018-12-04T00:00:27.829Z,0
2018-12-04T00:01:28.311Z,0
2018-12-04T00:02:28.064Z,0
2018-12-04T00:03:28.029Z,0
2018-12-04T00:04:28.009Z,0
2018-12-04T00:05:28.242Z,0
2018-12-04T00:06:28.323Z,0
2018-12-04T00:07:28.202Z,0
2018-12-04T00:08:28.182Z,0
2018-12-04T00:09:28.171Z,0
2018-12-04T00:10:27.898Z,0
2018-12-04T00:11:27.868Z,0
2018-12-04T00:12:27.604Z,0
2018-12-04T00:13:28.094Z,0
2018-12-04T00:14:27.566Z,0
2018-12-04T00:15:27.543Z,0
2018-12-04T00:16:27.785Z,0
2018-12-04T00:17:27.779Z,0
2018-12-04T00:18:27.239Z,0
2018-12-04T00:19:27.474Z,0
2018-12-04T00:20:27.722Z,0
2018-12-04T00:21:27.715Z,0
2018-12-04T00:22:27.677Z,0
2018-12-04T00:23:27.414Z,0
2018-12-04T00:24:27.945Z,0
2018-12-04T00:25:27.621Z,0
2018-12-04T00:26:27.338Z,0
2018-12-04T00:27:27.535Z,0
2018-12-04T00:28:27.569Z,0
2018-12-04T00:29:27.543Z,0
2018-12-04T00:30:27.518Z,0
2018-12-04T00:31:27.252Z,0
2018-12-04T00:32:27.494Z,0
2018-12-04T00:33:27.766Z,0
2018-12-04T00:34:27.460Z,0
2018-12-04T00:35:27.187Z,0
2018-12-04T00:36:27.423Z,0
2018-12-04T00:37:27.189Z,0
2018-12-04T00:38:27.648Z,0
2018-12-04T00:39:27.110Z,0
2018-12-04T00:40:27.093Z,0
2018-12-04T00:41:27.319Z,0
2018-12-04T00:42:27.299Z,0
2018-12-04T00:43:27.546Z,0
2018-12-04T00:44:27.517Z,0
2018-12-04T00:45:27.248Z,0
2018-12-04T00:46:27.239Z,0
2018-12-04T00:47:27.214Z,0
2018-12-04T00:48:27.444Z,0
2018-12-04T00:49:27.174Z,0
2018-12-04T00:50:26.647Z,0
2018-12-04T00:51:26.879Z,0
2018-12-04T00:52:27.215Z,0
2018-12-04T00:53:26.866Z,0
2018-12-04T00:54:27.079Z,0
2018-12-04T00:55:27.062Z,0
2018-12-04T00:56:26.814Z,0
2018-12-04T00:57:27.285Z,0
2018-12-04T00:58:26.954Z,0
2018-12-04T00:59:26.739Z,0
2018-12-04T01:00:26.759Z,0
2018-12-04T01:01:26.960Z,0
2018-12-04T01:02:26.685Z,0
2018-12-04T01:03:27.180Z,0
2018-12-04T01:04:26.897Z,0
2018-12-04T01:05:26.367Z,0
2018-12-04T01:06:27.116Z,0
2018-12-04T01:07:26.831Z,0
2018-12-04T01:08:27.084Z,0
2018-12-04T01:09:26.806Z,0
2018-12-04T01:10:27.039Z,0
2018-12-04T01:11:26.773Z,0
2018-12-04T01:12:27.036Z,0
2018-12-04T01:13:26.481Z,0
2018-12-04T01:14:26.505Z,0
2018-12-04T01:15:26.441Z,0
2018-12-04T01:16:26.935Z,0
2018-12-04T01:17:26.679Z,0
2018-12-04T01:18:26.949Z,0
2018-12-04T01:19:26.381Z,0
2018-12-04T01:20:26.859Z,0
2018-12-04T01:21:26.834Z,0
2018-12-04T01:22:26.324Z,0
2018-12-04T01:23:26.799Z,0
2018-12-04T01:24:26.281Z,0
2018-12-04T01:25:26.453Z,0
2018-12-04T01:26:26.763Z,0
2018-12-04T01:27:26.470Z,0
2018-12-04T01:28:26.088Z,0
2018-12-04T01:29:26.684Z,0
2018-12-04T01:30:26.657Z,0
2018-12-04T01:31:26.395Z,0
2018-12-04T01:32:26.388Z,0
2018-12-04T01:33:26.372Z,0
2018-12-04T01:34:26.604Z,0
2018-12-04T01:35:26.318Z,0
2018-12-04T01:36:25.792Z,0
2018-12-04T01:37:26.288Z,0
2018-12-04T01:38:26.315Z,0
2018-12-04T01:39:25.733Z,0
2018-12-04T01:40:25.971Z,0
2018-12-04T01:41:25.697Z,0
2018-12-04T01:42:26.180Z,0
2018-12-04T01:43:25.663Z,0
2018-12-04T01:44:26.420Z,0
2018-12-04T01:45:25.889Z,0
2018-12-04T01:46:25.894Z,0
2018-12-04T01:47:26.112Z,0
2018-12-04T01:48:25.568Z,0
2018-12-04T01:49:26.070Z,0
2018-12-04T01:50:25.797Z,0
2018-12-04T01:51:25.520Z,0
2018-12-04T01:52:26.002Z,0
2018-12-04T01:53:25.721Z,0
2018-12-04T01:54:25.463Z,0
2018-12-04T01:55:25.945Z,0
2018-12-04T01:56:25.672Z,0
2018-12-04T01:57:25.917Z,0
2018-12-04T01:58:25.891Z,0
2018-12-04T01:59:26.117Z,0
2018-12-04T02:00:25.854Z,0
2018-12-04T02:01:25.853Z,0
2018-12-04T02:02:25.921Z,0
2018-12-04T02:03:26.046Z,0
2018-12-04T02:04:25.523Z,0
2018-12-04T02:05:25.769Z,0
2018-12-04T02:06:25.984Z,0
2018-12-04T02:07:25.981Z,0
2018-12-04T02:08:25.453Z,0
2018-12-04T02:09:25.418Z,0
2018-12-04T02:10:25.655Z,0
2018-12-04T02:11:25.637Z,0
2018-12-04T02:12:25.453Z,0
2018-12-04T02:13:25.639Z,0
2018-12-04T02:14:25.851Z,0
2018-12-04T02:15:25.564Z,0
2018-12-04T02:16:25.037Z,0
2018-12-04T02:17:25.530Z,0
2018-12-04T02:18:25.259Z,0
2018-12-04T02:19:25.486Z,0
2018-12-04T02:20:25.736Z,0
2018-12-04T02:21:25.452Z,0
2018-12-04T02:22:24.969Z,0
2018-12-04T02:23:25.452Z,0
2018-12-04T02:24:25.148Z,0
2018-12-04T02:25:24.870Z,0
2018-12-04T02:26:25.113Z,0
2018-12-04T02:27:25.387Z,0
2018-12-04T02:28:25.320Z,0
2018-12-04T02:29:25.092Z,0
2018-12-04T02:30:25.294Z,0
2018-12-04T02:31:25.530Z,0
2018-12-04T02:32:25.245Z,0
2018-12-04T02:33:25.481Z,0
2018-12-04T02:34:24.976Z,0
2018-12-04T02:35:25.187Z,0
2018-12-04T02:36:25.213Z,0
2018-12-04T02:37:24.926Z,0
2018-12-04T02:38:24.874Z,0
2018-12-04T02:39:25.125Z,0
2018-12-04T02:40:25.398Z,0
2018-12-04T02:41:25.390Z,0
2018-12-04T02:42:25.310Z,0
2018-12-04T02:43:24.810Z,0
2018-12-04T02:44:25.372Z,0
2018-12-04T02:45:25.306Z,0
2018-12-04T02:46:24.981Z,0
2018-12-04T02:47:24.702Z,0
2018-12-04T02:48:24.693Z,0
2018-12-04T02:49:24.929Z,0
2018-12-04T02:50:24.903Z,0
2018-12-04T02:51:24.904Z,0
2018-12-04T02:52:25.125Z,0
2018-12-04T02:53:24.857Z,0
2018-12-04T02:54:24.883Z,0
2018-12-04T02:55:24.709Z,0
2018-12-04T02:56:25.032Z,0
2018-12-04T02:57:25.034Z,0
2018-12-04T02:58:24.745Z,0
2018-12-04T02:59:24.774Z,0
2018-12-04T03:00:24.972Z,0
2018-12-04T03:01:24.471Z,0
2018-12-04T03:02:24.929Z,0
2018-12-04T03:03:24.402Z,0
2018-12-04T03:04:24.886Z,0
2018-12-04T03:05:24.354Z,0
2018-12-04T03:06:24.094Z,0
2018-12-04T03:07:24.574Z,0
2018-12-04T03:08:24.814Z,0
2018-12-04T03:09:24.040Z,0
2018-12-04T03:10:24.009Z,0
2018-12-04T03:11:24.254Z,0
2018-12-04T03:12:24.750Z,0
2018-12-04T03:13:24.716Z,0
2018-12-04T03:14:24.441Z,0
2018-12-04T03:15:24.425Z,0
2018-12-04T03:16:24.411Z,0
2018-12-04T03:17:24.387Z,0
2018-12-04T03:18:24.620Z,0
2018-12-04T03:19:24.088Z,0
2018-12-04T03:20:24.582Z,0
2018-12-04T03:21:24.311Z,0
2018-12-04T03:22:24.303Z,0
2018-12-04T03:23:24.270Z,0
2018-12-04T03:24:24.307Z,0
2018-12-04T03:25:24.685Z,0
2018-12-04T03:26:23.962Z,0
2018-12-04T03:27:24.442Z,0
2018-12-04T03:28:24.443Z,0
2018-12-04T03:29:23.904Z,0
2018-12-04T03:30:24.277Z,0
2018-12-04T03:31:24.389Z,0
2018-12-04T03:32:24.120Z,0
2018-12-04T03:33:24.347Z,0
2018-12-04T03:34:24.076Z,0
2018-12-04T03:35:24.311Z,0
2018-12-04T03:36:24.029Z,0
2018-12-04T03:37:24.006Z,0
2018-12-04T03:38:24.240Z,0
2018-12-04T03:39:24.225Z,0
2018-12-04T03:40:23.790Z,0
2018-12-04T03:41:23.930Z,0
2018-12-04T03:42:23.903Z,0
2018-12-04T03:43:23.890Z,0
2018-12-04T03:44:23.611Z,0
2018-12-04T03:45:23.598Z,0
2018-12-04T03:46:23.830Z,0
2018-12-04T03:47:24.064Z,0
2018-12-04T03:48:23.788Z,0
2018-12-04T03:49:23.258Z,0
2018-12-04T03:50:24.006Z,0
2018-12-04T03:51:23.744Z,0
2018-12-04T03:52:23.961Z,0
2018-12-04T03:53:23.703Z,0
2018-12-04T03:54:23.689Z,0
2018-12-04T03:55:23.951Z,0
2018-12-04T03:56:23.641Z,0
2018-12-04T03:57:23.894Z,0
2018-12-04T03:58:23.347Z,0
2018-12-04T03:59:23.607Z,0
2018-12-04T04:00:23.559Z,0
2018-12-04T04:01:23.277Z,0
2018-12-04T04:02:23.771Z,0
2018-12-04T04:03:23.512Z,0
2018-12-04T04:04:23.473Z,0
2018-12-04T04:05:23.476Z,0
2018-12-04T04:06:23.187Z,0
2018-12-04T04:07:23.421Z,0
2018-12-04T04:08:23.407Z,0
2018-12-04T04:09:23.133Z,0
2018-12-04T04:10:24.562Z,0
2018-12-04T04:11:23.603Z,0
2018-12-04T04:12:23.329Z,0
2018-12-04T04:13:23.568Z,0
2018-12-04T04:14:23.606Z,0
2018-12-04T04:15:23.274Z,0
2018-12-04T04:16:23.253Z,0
2018-12-04T04:17:23.229Z,0
2018-12-04T04:18:23.214Z,0
2018-12-04T04:19:23.209Z,0
2018-12-04T04:20:23.170Z,0
2018-12-04T04:21:22.904Z,0
2018-12-04T04:22:23.133Z,0
2018-12-04T04:23:23.157Z,0
2018-12-04T04:24:23.096Z,0
2018-12-04T04:25:22.818Z,0
2018-12-04T04:26:23.062Z,0
2018-12-04T04:27:22.791Z,0
2018-12-04T04:28:23.010Z,0
2018-12-04T04:29:23.280Z,0
2018-12-04T04:30:23.222Z,0
2018-12-04T04:31:22.443Z,0
2018-12-04T04:32:23.196Z,0
2018-12-04T04:33:23.200Z,0
2018-12-04T04:34:22.952Z,0
2018-12-04T04:35:22.878Z,0
2018-12-04T04:36:22.604Z,0
2018-12-04T04:37:22.598Z,0
2018-12-04T04:38:23.090Z,0
2018-12-04T04:39:22.559Z,0
2018-12-04T04:40:22.544Z,0
2018-12-04T04:41:22.753Z,0
2018-12-04T04:42:22.991Z,0
2018-12-04T04:43:22.486Z,0
2018-12-04T04:44:22.959Z,0
2018-12-04T04:45:22.685Z,0
2018-12-04T04:46:22.416Z,0
2018-12-04T04:47:22.648Z,0
2018-12-04T04:48:22.879Z,0
2018-12-04T04:49:22.362Z,0
2018-12-04T04:50:22.583Z,0
2018-12-04T04:51:22.320Z,0
2018-12-04T04:52:22.817Z,0
2018-12-04T04:53:22.529Z,0
2018-12-04T04:54:22.012Z,0
2018-12-04T04:55:22.778Z,0
2018-12-04T04:56:22.222Z,0
2018-12-04T04:57:22.198Z,0
2018-12-04T04:58:22.687Z,0
2018-12-04T04:59:22.434Z,0
2018-12-04T05:00:22.393Z,0
2018-12-04T05:01:22.676Z,0
2018-12-04T05:02:22.121Z,0
2018-12-04T05:03:22.350Z,0
2018-12-04T05:04:22.321Z,0
2018-12-04T05:05:21.782Z,0
2018-12-04T05:06:22.534Z,0
2018-12-04T05:07:22.001Z,0
2018-12-04T05:08:23.633Z,0
2018-12-04T05:09:22.290Z,0
2018-12-04T05:10:22.452Z,0
2018-12-04T05:11:21.674Z,0
2018-12-04T05:12:22.172Z,0
2018-12-04T05:13:21.883Z,0
2018-12-04T05:14:22.368Z,0
2018-12-04T05:15:22.368Z,0
2018-12-04T05:16:21.829Z,0
2018-12-04T05:17:22.325Z,0
2018-12-04T05:18:22.048Z,0
2018-12-04T05:19:22.273Z,0
2018-12-04T05:20:22.013Z,0
2018-12-04T05:21:21.974Z,0
2018-12-04T05:22:21.966Z,0
2018-12-04T05:23:21.678Z,0
2018-12-04T05:24:21.663Z,0
2018-12-04T05:25:21.677Z,0
2018-12-04T05:26:22.075Z,0
2018-12-04T05:27:21.856Z,0
2018-12-04T05:28:22.091Z,0
2018-12-04T05:29:21.820Z,0
2018-12-04T05:30:21.799Z,0
2018-12-04T05:31:22.022Z,0
2018-12-04T05:32:22.011Z,0
2018-12-04T05:33:21.479Z,0
2018-12-04T05:34:21.718Z,0
2018-12-04T05:35:21.944Z,0
2018-12-04T05:36:21.429Z,0
2018-12-04T05:37:21.451Z,0
2018-12-04T05:38:21.669Z,0
2018-12-04T05:39:21.885Z,0
2018-12-04T05:40:22.809Z,0
2018-12-04T05:41:21.582Z,0
2018-12-04T05:42:21.557Z,0
2018-12-04T05:43:21.533Z,0
2018-12-04T05:44:21.504Z,0
2018-12-04T05:45:21.485Z,0
2018-12-04T05:46:21.466Z,0
2018-12-04T05:47:21.851Z,0
2018-12-04T05:48:21.173Z,0
2018-12-04T05:49:21.421Z,0
2018-12-04T05:50:21.391Z,0
2018-12-04T05:51:21.367Z,0
2018-12-04T05:52:21.368Z,0
2018-12-04T05:53:21.080Z,0
2018-12-04T05:54:21.064Z,0
2018-12-04T05:55:21.056Z,0
2018-12-04T05:56:21.554Z,0
2018-12-04T05:57:20.990Z,0
2018-12-04T05:58:21.241Z,0
2018-12-04T05:59:20.960Z,0
2018-12-04T06:00:21.187Z,0
2018-12-04T06:01:21.419Z,0
2018-12-04T06:02:21.409Z,0
2018-12-04T06:03:21.121Z,0
2018-12-04T06:04:21.368Z,0
2018-12-04T06:05:20.863Z,0
2018-12-04T06:06:21.073Z,0
2018-12-04T06:07:21.307Z,0
2018-12-04T06:08:21.030Z,0
2018-12-04T06:09:20.749Z,0
2018-12-04T06:10:21.282Z,0
2018-12-04T06:11:20.956Z,0
2018-12-04T06:12:20.944Z,0
2018-12-04T06:13:20.923Z,0
2018-12-04T06:14:20.922Z,0
2018-12-04T06:15:21.135Z,0
2018-12-04T06:16:20.344Z,0
2018-12-04T06:17:20.332Z,0
2018-12-04T06:18:20.834Z,0
2018-12-04T06:19:21.054Z,0
2018-12-04T06:20:20.774Z,0
2018-12-04T06:21:20.763Z,0
2018-12-04T06:22:20.737Z,0
2018-12-04T06:23:20.467Z,0
2018-12-04T06:24:20.436Z,0
2018-12-04T06:25:20.704Z,0
2018-12-04T06:26:20.921Z,0
2018-12-04T06:27:20.375Z,0
2018-12-04T06:28:20.369Z,0
2018-12-04T06:29:20.373Z,0
2018-12-04T06:30:20.331Z,0
2018-12-04T06:31:20.546Z,0
2018-12-04T06:32:20.281Z,0
2018-12-04T06:33:20.535Z,0
2018-12-04T06:34:20.489Z,0
2018-12-04T06:35:20.224Z,0
2018-12-04T06:36:20.448Z,0
2018-12-04T06:37:20.426Z,0
2018-12-04T06:38:20.409Z,0
2018-12-04T06:39:20.388Z,0
2018-12-04T06:40:20.674Z,0
2018-12-04T06:41:20.348Z,0
2018-12-04T06:42:20.326Z,0
2018-12-04T06:43:20.562Z,4
2018-12-04T06:44:20.281Z,4
2018-12-04T06:45:20.519Z,0
2018-12-04T06:46:20.245Z,4
2018-12-04T06:47:20.226Z,4
2018-12-04T06:48:20.460Z,4
2018-12-04T06:49:19.929Z,4
2018-12-04T06:50:20.169Z,8
2018-12-04T06:51:20.141Z,8
2018-12-04T06:52:20.126Z,8
2018-12-04T06:53:20.099Z,8
2018-12-04T06:54:19.565Z,8
2018-12-04T06:55:19.811Z,12
2018-12-04T06:56:20.036Z,16
2018-12-04T06:57:21.302Z,16
2018-12-04T06:58:19.770Z,20
2018-12-04T06:59:19.757Z,20
2018-12-04T07:00:19.758Z,24
2018-12-04T07:01:19.929Z,32
2018-12-04T07:02:19.657Z,36
2018-12-04T07:03:19.380Z,40
2018-12-04T07:04:19.875Z,44
2018-12-04T07:05:20.110Z,52
2018-12-04T07:06:19.571Z,60
2018-12-04T07:07:20.070Z,68
2018-12-04T07:08:20.037Z,72
2018-12-04T07:09:19.516Z,80
2018-12-04T07:10:19.747Z,84
2018-12-04T07:11:19.475Z,96
2018-12-04T07:12:19.711Z,104
2018-12-04T07:13:19.426Z,112
2018-12-04T07:14:19.420Z,124
2018-12-04T07:15:19.648Z,136
2018-12-04T07:16:19.880Z,148
2018-12-04T07:17:20.955Z,156
2018-12-04T07:18:19.583Z,172
2018-12-04T07:19:19.570Z,184
2018-12-04T07:20:19.786Z,200
2018-12-04T07:21:19.518Z,212
2018-12-04T07:22:19.495Z,232
2018-12-04T07:23:19.480Z,248
2018-12-04T07:24:19.207Z,264
2018-12-04T07:25:19.176Z,284
2018-12-04T07:26:19.359Z,304
2018-12-04T07:27:19.404Z,316
2018-12-04T07:28:19.417Z,324
2018-12-04T07:29:19.351Z,332
2018-12-04T07:30:18.868Z,348
2018-12-04T07:31:18.803Z,364
2018-12-04T07:32:19.544Z,388
2018-12-04T07:33:19.026Z,412
2018-12-04T07:34:19.246Z,428
2018-12-04T07:35:18.967Z,448
2018-12-04T07:36:19.209Z,472
2018-12-04T07:37:19.185Z,496
2018-12-04T07:38:19.413Z,512
2018-12-04T07:39:19.142Z,528
2018-12-04T07:40:19.120Z,552
2018-12-04T07:41:19.103Z,568
2018-12-04T07:42:19.342Z,588
2018-12-04T07:43:19.063Z,608
2018-12-04T07:44:18.793Z,624
2018-12-04T07:45:19.055Z,648
2018-12-04T07:46:19.016Z,668
2018-12-04T07:47:18.990Z,688
2018-12-04T07:48:19.349Z,716
2018-12-04T07:49:18.936Z,748
2018-12-04T07:50:18.404Z,776
2018-12-04T07:51:18.916Z,800
2018-12-04T07:52:19.151Z,820
2018-12-04T07:53:19.114Z,840
2018-12-04T07:54:19.097Z,860
2018-12-04T07:55:18.821Z,876
2018-12-04T07:56:19.051Z,892
2018-12-04T07:57:18.260Z,908
2018-12-04T07:58:18.496Z,920
2018-12-04T07:59:18.732Z,944
2018-12-04T08:00:18.459Z,968
2018-12-04T08:01:18.960Z,1000
2018-12-04T08:02:18.679Z,1024
2018-12-04T08:03:18.405Z,1052
2018-12-04T08:04:18.937Z,1072
2018-12-04T08:05:18.857Z,1092
2018-12-04T08:06:18.866Z,1120
2018-12-04T08:07:18.576Z,1148
2018-12-04T08:08:18.806Z,1168
2018-12-04T08:09:18.782Z,1184
2018-12-04T08:10:18.254Z,1200
2018-12-04T08:11:18.741Z,1220
2018-12-04T08:12:18.717Z,1228
2018-12-04T08:13:18.438Z,1244
2018-12-04T08:14:18.732Z,1256
2018-12-04T08:15:18.406Z,1280
2018-12-04T08:16:18.373Z,1316
2018-12-04T08:17:18.400Z,1348
2018-12-04T08:18:18.594Z,1372
2018-12-04T08:19:18.567Z,1392
2018-12-04T08:20:18.291Z,1404
2018-12-04T08:21:18.281Z,1420
2018-12-04T08:22:18.272Z,1440
2018-12-04T08:23:17.980Z,1456
2018-12-04T08:24:17.962Z,1480
2018-12-04T08:25:18.440Z,1504
2018-12-04T08:26:18.180Z,1528
2018-12-04T08:27:17.912Z,1544
2018-12-04T08:28:18.125Z,1564
2018-12-04T08:29:17.868Z,1584
2018-12-04T08:30:18.092Z,1612
2018-12-04T08:31:17.809Z,1628
2018-12-04T08:32:17.797Z,1644
2018-12-04T08:33:18.303Z,1660
2018-12-04T08:34:18.003Z,1672
2018-12-04T08:35:17.991Z,1680
2018-12-04T08:36:17.964Z,1688
2018-12-04T08:37:17.694Z,1700
2018-12-04T08:38:17.672Z,1720
2018-12-04T08:39:19.684Z,1732
2018-12-04T08:40:17.631Z,1748
2018-12-04T08:41:17.860Z,1772
2018-12-04T08:42:17.848Z,1780
2018-12-04T08:43:17.824Z,1796
2018-12-04T08:44:17.551Z,1812
2018-12-04T08:45:17.555Z,1820
2018-12-04T08:46:17.759Z,1828
2018-12-04T08:47:17.997Z,1836
2018-12-04T08:48:17.716Z,1852
2018-12-04T08:49:17.752Z,1868
2018-12-04T08:50:17.418Z,1880
2018-12-04T08:51:17.402Z,1892
2018-12-04T08:52:17.651Z,1912
2018-12-04T08:53:17.617Z,1932
2018-12-04T08:54:17.335Z,1956
2018-12-04T08:55:17.574Z,1976
2018-12-04T08:56:17.838Z,2000
2018-12-04T08:57:17.861Z,2024
2018-12-04T08:58:17.512Z,2048
2018-12-04T08:59:17.496Z,2064
2018-12-04T09:00:17.485Z,2080
2018-12-04T09:01:17.457Z,2084
2018-12-04T09:02:17.434Z,2084
2018-12-04T09:03:17.418Z,2096
2018-12-04T09:04:17.655Z,2104
2018-12-04T09:05:17.376Z,2112
2018-12-04T09:06:17.095Z,2128
2018-12-04T09:07:17.593Z,2144
2018-12-04T09:08:17.385Z,2168
2018-12-04T09:09:17.357Z,2192
2018-12-04T09:10:17.032Z,2220
2018-12-04T09:11:17.002Z,2260
2018-12-04T09:12:17.226Z,2288
2018-12-04T09:13:16.958Z,2308
2018-12-04T09:14:17.449Z,2328
2018-12-04T09:15:17.426Z,2352
2018-12-04T09:16:18.240Z,2384
2018-12-04T09:17:17.393Z,2416
2018-12-04T09:18:17.477Z,2612
2018-12-04T09:19:16.972Z,3124
2018-12-04T09:20:17.222Z,3052
2018-12-04T09:21:17.026Z,2848
2018-12-04T09:22:18.539Z,2856
2018-12-04T09:23:16.910Z,2920
2018-12-04T09:24:17.061Z,2956
2018-12-04T09:25:16.867Z,2992
2018-12-04T09:26:17.286Z,3068
2018-12-04T09:27:17.063Z,3528
2018-12-04T09:28:16.690Z,5096
2018-12-04T09:29:17.102Z,6028
2018-12-04T09:30:17.256Z,5788
2018-12-04T09:31:16.859Z,4740
2018-12-04T09:32:16.860Z,3828
2018-12-04T09:33:17.076Z,4388
2018-12-04T09:34:17.052Z,4628
2018-12-04T09:35:16.834Z,4720
2018-12-04T09:36:16.763Z,5076
2018-12-04T09:37:16.228Z,5320
2018-12-04T09:38:16.986Z,5312
2018-12-04T09:39:16.951Z,5240
2018-12-04T09:40:16.703Z,5240
2018-12-04T09:41:16.659Z,4556
2018-12-04T09:42:16.635Z,5240
2018-12-04T09:43:16.633Z,3220
2018-12-04T09:44:16.347Z,5280
2018-12-04T09:45:16.334Z,4824
2018-12-04T09:46:16.820Z,4704
2018-12-04T09:47:16.807Z,6040
2018-12-04T09:48:16.528Z,6776
2018-12-04T09:49:16.514Z,6500
2018-12-04T09:50:16.499Z,7600
2018-12-04T09:51:16.483Z,7196
2018-12-04T09:52:16.473Z,6276
2018-12-04T09:53:16.443Z,5212
2018-12-04T09:54:16.683Z,5068
2018-12-04T09:55:16.670Z,5888
2018-12-04T09:56:16.133Z,7104
2018-12-04T09:57:16.396Z,8200
2018-12-04T09:58:16.396Z,7728
2018-12-04T09:59:16.554Z,6548
2018-12-04T10:00:16.383Z,7552
2018-12-04T10:01:16.340Z,7624
2018-12-04T10:02:16.533Z,6944
2018-12-04T10:03:16.006Z,6612
2018-12-04T10:04:16.516Z,7044
2018-12-04T10:05:16.238Z,7336
2018-12-04T10:06:16.220Z,6808
2018-12-04T10:07:16.468Z,6760
2018-12-04T10:08:16.185Z,7880
2018-12-04T10:09:16.426Z,7784
2018-12-04T10:10:16.158Z,6892
2018-12-04T10:11:16.165Z,5636
2018-12-04T10:12:16.373Z,5172
2018-12-04T10:13:15.605Z,6256
2018-12-04T10:14:16.359Z,6500
2018-12-04T10:15:16.336Z,7584
2018-12-04T10:16:16.318Z,10404
2018-12-04T10:17:16.302Z,11288
2018-12-04T10:18:16.051Z,10704
2018-12-04T10:19:16.014Z,9852
2018-12-04T10:20:16.006Z,9352
2018-12-04T10:21:16.245Z,9284
2018-12-04T10:22:15.982Z,8948
2018-12-04T10:23:15.962Z,9508
2018-12-04T10:24:15.690Z,11008
2018-12-04T10:25:16.211Z,10380
2018-12-04T10:26:15.661Z,9596
2018-12-04T10:27:15.905Z,10500
2018-12-04T10:28:15.889Z,10140
2018-12-04T10:29:15.629Z,9508
2018-12-04T10:30:15.872Z,18588
2018-12-04T10:31:16.308Z,8384
2018-12-04T10:32:15.906Z,6748
2018-12-04T10:33:16.081Z,6028
2018-12-04T10:34:16.081Z,7704
2018-12-04T10:35:16.050Z,7772
2018-12-04T10:36:16.286Z,5744
2018-12-04T10:37:16.017Z,5348
2018-12-04T10:38:16.010Z,5944
2018-12-04T10:39:16.028Z,7204
2018-12-04T10:40:15.751Z,8464
2018-12-04T10:41:15.956Z,8724
2018-12-04T10:42:15.959Z,6896
2018-12-04T10:43:15.441Z,8272
2018-12-04T10:44:15.406Z,6688
2018-12-04T10:45:15.389Z,6456
2018-12-04T10:46:15.651Z,5796
2018-12-04T10:47:15.626Z,7000
2018-12-04T10:48:15.623Z,7100
2018-12-04T10:49:15.589Z,7804
2018-12-04T10:50:15.618Z,6976
2018-12-04T10:51:15.363Z,8448
2018-12-04T10:52:15.300Z,9748
2018-12-04T10:53:15.785Z,9876
2018-12-04T10:54:15.019Z,9644
2018-12-04T10:55:15.530Z,9692
2018-12-04T10:56:15.759Z,10308
2018-12-04T10:57:16.874Z,10808
2018-12-04T10:58:15.467Z,11076
2018-12-04T10:59:15.193Z,10780
2018-12-04T11:00:15.453Z,10524
2018-12-04T11:01:15.441Z,10544
2018-12-04T11:02:15.167Z,10460
2018-12-04T11:03:15.417Z,11864
2018-12-04T11:04:15.383Z,13116
2018-12-04T11:05:15.629Z,12864
2018-12-04T11:06:15.361Z,12344
2018-12-04T11:07:15.355Z,11084
2018-12-04T11:08:15.334Z,9736
2018-12-04T11:09:15.604Z,8764
2018-12-04T11:10:15.312Z,9024
2018-12-04T11:11:15.580Z,8900
2018-12-04T11:12:19.019Z,9308
2018-12-04T11:13:15.545Z,8264
2018-12-04T11:14:15.269Z,7912
2018-12-04T11:15:15.586Z,9396
2018-12-04T11:16:15.003Z,11592
2018-12-04T11:17:15.517Z,12784
2018-12-04T11:18:15.220Z,13100
2018-12-04T11:19:14.955Z,13624
2018-12-04T11:20:15.212Z,11224
2018-12-04T11:21:15.442Z,9004
2018-12-04T11:22:15.431Z,9132
2018-12-04T11:23:15.160Z,10464
2018-12-04T11:24:15.146Z,12644
2018-12-04T11:25:15.406Z,4904
2018-12-04T11:26:15.333Z,14148
2018-12-04T11:27:15.120Z,13016
2018-12-04T11:28:15.104Z,9468
2018-12-04T11:29:14.841Z,8532
2018-12-04T11:30:15.349Z,9600
2018-12-04T11:31:14.820Z,13032
2018-12-04T11:32:15.089Z,18208
2018-12-04T11:33:16.078Z,18272
2018-12-04T11:34:14.802Z,16736
2018-12-04T11:35:15.300Z,16384
2018-12-04T11:36:14.777Z,16768
2018-12-04T11:37:14.755Z,16832
2018-12-04T11:38:14.992Z,15616
2018-12-04T11:39:14.990Z,15776
2018-12-04T11:40:14.975Z,17056
2018-12-04T11:41:15.212Z,17824
2018-12-04T11:42:15.217Z,18144
2018-12-04T11:43:15.205Z,18176
2018-12-04T11:44:15.186Z,17856
2018-12-04T11:45:15.201Z,17728
2018-12-04T11:46:14.655Z,17728
2018-12-04T11:47:15.238Z,17920
2018-12-04T11:48:14.636Z,17120
2018-12-04T11:49:14.686Z,15808
2018-12-04T11:50:15.129Z,14880
2018-12-04T11:51:15.113Z,15328
2018-12-04T11:52:14.612Z,16128
2018-12-04T11:53:14.872Z,16640
2018-12-04T11:54:14.836Z,17056
2018-12-04T11:55:14.837Z,17472
2018-12-04T11:56:15.076Z,17664
2018-12-04T11:57:15.069Z,17408
2018-12-04T11:58:14.553Z,11436
2018-12-04T11:59:14.802Z,15712
2018-12-04T12:00:15.073Z,15296
2018-12-04T12:01:14.795Z,5452
2018-12-04T12:02:17.804Z,5236
2018-12-04T12:03:15.034Z,9304
2018-12-04T12:04:15.031Z,16672
2018-12-04T12:05:14.495Z,17344
2018-12-04T12:06:15.003Z,17472
2018-12-04T12:07:20.373Z,17088
2018-12-04T12:08:14.731Z,4848
2018-12-04T12:09:14.985Z,7708
2018-12-04T12:10:14.465Z,8624
2018-12-04T12:11:14.503Z,8880
2018-12-04T12:12:14.749Z,4784
2018-12-04T12:13:14.441Z,5096
2018-12-04T12:14:14.681Z,10396
2018-12-04T12:15:20.320Z,4372
2018-12-04T12:16:14.988Z,14464
2018-12-04T12:17:14.908Z,12796
2018-12-04T12:18:14.921Z,3724
2018-12-04T12:19:14.889Z,3416
2018-12-04T12:20:14.641Z,3892
2018-12-04T12:21:14.613Z,3100
2018-12-04T12:22:14.604Z,3012
2018-12-04T12:23:14.603Z,3272
2018-12-04T12:24:14.324Z,3924
2018-12-04T12:25:14.621Z,12992
2018-12-04T12:26:14.565Z,10032
2018-12-04T12:27:14.551Z,9760
2018-12-04T12:28:14.033Z,12564
2018-12-04T12:29:14.529Z,13612
2018-12-04T12:30:14.267Z,10576
2018-12-04T12:31:14.512Z,10856
2018-12-04T12:32:14.783Z,3708
2018-12-04T12:33:14.618Z,3372
2018-12-04T12:34:14.240Z,12012
2018-12-04T12:35:14.722Z,14100
2018-12-04T12:36:14.713Z,13788
2018-12-04T12:37:13.937Z,9400
2018-12-04T12:38:14.192Z,3204
2018-12-04T12:39:14.172Z,3172
2018-12-04T12:40:14.706Z,3232
2018-12-04T12:41:14.658Z,12480
2018-12-04T12:42:14.139Z,11588
2018-12-04T12:43:13.876Z,11280
2018-12-04T12:44:14.630Z,11160
2018-12-04T12:45:14.363Z,11020
2018-12-04T12:46:14.629Z,10844
2018-12-04T12:47:14.607Z,9168
2018-12-04T12:48:14.581Z,10464
2018-12-04T12:49:14.067Z,10904
2018-12-04T12:50:14.312Z,11664
2018-12-04T12:51:14.298Z,12628
2018-12-04T12:52:14.037Z,13620
2018-12-04T12:53:14.737Z,14248
2018-12-04T12:54:14.282Z,14684
2018-12-04T12:55:14.012Z,14604
2018-12-04T12:56:13.747Z,14188
2018-12-04T12:57:14.567Z,13612
2018-12-04T12:58:14.554Z,13628
2018-12-04T12:59:14.225Z,13728
2018-12-04T13:00:14.238Z,13372
2018-12-04T13:01:13.972Z,12756
2018-12-04T13:02:14.206Z,11772
2018-12-04T13:03:14.251Z,10880
2018-12-04T13:04:14.196Z,10660
2018-12-04T13:05:14.440Z,10728
2018-12-04T13:06:14.181Z,10556
2018-12-04T13:07:13.926Z,10156
2018-12-04T13:08:14.422Z,9888
2018-12-04T13:09:14.149Z,9920
2018-12-04T13:10:13.895Z,10464
2018-12-04T13:11:13.892Z,11272
2018-12-04T13:12:14.121Z,11616
2018-12-04T13:13:14.128Z,11496
2018-12-04T13:14:14.386Z,11304
2018-12-04T13:15:14.119Z,11288
2018-12-04T13:16:14.361Z,11768
2018-12-04T13:17:13.928Z,12312
2018-12-04T13:18:14.113Z,12656
2018-12-04T13:19:13.832Z,12612
2018-12-04T13:20:14.072Z,11672
2018-12-04T13:21:14.068Z,11036
2018-12-04T13:22:13.826Z,10304
2018-12-04T13:23:13.810Z,9984
2018-12-04T13:24:14.041Z,10368
2018-12-04T13:25:14.038Z,10644
2018-12-04T13:26:14.506Z,10368
2018-12-04T13:27:13.780Z,8396
2018-12-04T13:28:14.042Z,8532
2018-12-04T13:29:14.005Z,8376
2018-12-04T13:30:14.022Z,8636
2018-12-04T13:31:13.988Z,9056
2018-12-04T13:32:13.990Z,9216
2018-12-04T13:33:13.988Z,8752
2018-12-04T13:34:13.458Z,7704
2018-12-04T13:35:14.249Z,8908
2018-12-04T13:36:14.212Z,8176
2018-12-04T13:37:14.241Z,7080
2018-12-04T13:38:13.958Z,5408
2018-12-04T13:39:13.960Z,3876
2018-12-04T13:40:15.908Z,3080
2018-12-04T13:41:14.159Z,2956
2018-12-04T13:42:13.688Z,2860
2018-12-04T13:43:13.952Z,2788
2018-12-04T13:44:13.931Z,2720
2018-12-04T13:45:14.134Z,2652
2018-12-04T13:46:13.926Z,2588
2018-12-04T13:47:13.893Z,2244
2018-12-04T13:48:13.875Z,2064
2018-12-04T13:49:14.108Z,2204
2018-12-04T13:50:14.577Z,2328
2018-12-04T13:51:14.093Z,2384
2018-12-04T13:52:13.583Z,2392
2018-12-04T13:53:13.832Z,2376
2018-12-04T13:54:13.803Z,2368
2018-12-04T13:55:14.063Z,2304
2018-12-04T13:56:13.788Z,2004
2018-12-04T13:57:13.518Z,1920
2018-12-04T13:58:13.768Z,1900